sensor_id;sensor_type;location;lat;lon;timestamp;P1;durP1;ratioP1;P2;durP2;ratioP2
30553;SDS011;17335;50.720;7.452;2022-10-16T00:01:27;3.15;;;1.70;;
30553;SDS011;17335;50.720;7.452;2022-10-16T00:03:58;2.60;;;1.60;;
30553;SDS011;17335;50.720;7.452;2022-10-16T00:06:26;5.40;;;1.60;;
30553;SDS011;17335;50.720;7.452;2022-10-16T00:08:54;3.97;;;1.80;;
30553;SDS011;17335;50.720;7.452;2022-10-16T00:11:21;4.00;;;1.85;;
30553;SDS011;17335;50.720;7.452;2022-10-16T00:13:54;2.58;;;1.33;;
30553;SDS011;17335;50.720;7.452;2022-10-16T00:16:23;4.18;;;1.63;;
30553;SDS011;17335;50.720;7.452;2022-10-16T00:18:49;5.50;;;1.70;;
30553;SDS011;17335;50.720;7.452;2022-10-16T00:21:17;3.47;;;1.77;;
30553;SDS011;17335;50.720;7.452;2022-10-16T00:23:46;2.92;;;1.70;;
30553;SDS011;17335;50.720;7.452;2022-10-16T00:26:14;3.58;;;1.70;;
30553;SDS011;17335;50.720;7.452;2022-10-16T00:28:42;2.92;;;1.60;;
30553;SDS011;17335;50.720;7.452;2022-10-16T00:31:12;2.83;;;1.20;;
30553;SDS011;17335;50.720;7.452;2022-10-16T00:33:39;5.25;;;1.48;;
30553;SDS011;17335;50.720;7.452;2022-10-16T00:36:07;3.97;;;1.75;;
30553;SDS011;17335;50.720;7.452;2022-10-16T00:38:36;2.42;;;1.30;;
30553;SDS011;17335;50.720;7.452;2022-10-16T00:41:07;3.03;;;1.60;;
30553;SDS011;17335;50.720;7.452;2022-10-16T00:43:38;1.63;;;1.20;;
30553;SDS011;17335;50.720;7.452;2022-10-16T00:46:17;3.17;;;1.48;;
30553;SDS011;17335;50.720;7.452;2022-10-16T00:48:57;2.45;;;1.38;;
30553;SDS011;17335;50.720;7.452;2022-10-16T00:51:33;3.67;;;1.52;;
30553;SDS011;17335;50.720;7.452;2022-10-16T00:54:02;3.53;;;1.85;;
30553;SDS011;17335;50.720;7.452;2022-10-16T00:56:32;5.03;;;1.90;;
30553;SDS011;17335;50.720;7.452;2022-10-16T00:59:01;5.32;;;1.67;;
30553;SDS011;17335;50.720;7.452;2022-10-16T01:01:29;3.13;;;1.50;;
30553;SDS011;17335;50.720;7.452;2022-10-16T01:03:56;3.63;;;2.03;;
30553;SDS011;17335;50.720;7.452;2022-10-16T01:06:34;5.35;;;2.72;;
30553;SDS011;17335;50.720;7.452;2022-10-16T01:11:49;3.13;;;1.73;;
30553;SDS011;17335;50.720;7.452;2022-10-16T01:17:11;2.80;;;1.35;;
30553;SDS011;17335;50.720;7.452;2022-10-16T01:22:37;2.33;;;1.52;;
30553;SDS011;17335;50.720;7.452;2022-10-16T01:25:09;2.28;;;1.40;;
30553;SDS011;17335;50.720;7.452;2022-10-16T01:30:13;5.00;;;1.88;;
30553;SDS011;17335;50.720;7.452;2022-10-16T01:32:58;4.03;;;2.10;;
30553;SDS011;17335;50.720;7.452;2022-10-16T01:35:29;7.97;;;3.33;;
30553;SDS011;17335;50.720;7.452;2022-10-16T01:38:09;14.50;;;4.68;;
30553;SDS011;17335;50.720;7.452;2022-10-16T01:40:51;7.43;;;2.35;;
30553;SDS011;17335;50.720;7.452;2022-10-16T01:43:31;3.72;;;1.98;;
30553;SDS011;17335;50.720;7.452;2022-10-16T01:46:02;3.42;;;1.83;;
30553;SDS011;17335;50.720;7.452;2022-10-16T01:48:30;4.43;;;1.88;;
30553;SDS011;17335;50.720;7.452;2022-10-16T01:51:06;6.35;;;2.22;;
30553;SDS011;17335;50.720;7.452;2022-10-16T01:53:36;3.70;;;1.80;;
30553;SDS011;17335;50.720;7.452;2022-10-16T01:56:03;4.72;;;2.25;;
30553;SDS011;17335;50.720;7.452;2022-10-16T01:58:35;2.95;;;1.83;;
30553;SDS011;17335;50.720;7.452;2022-10-16T02:01:06;4.40;;;2.20;;
30553;SDS011;17335;50.720;7.452;2022-10-16T02:03:36;5.40;;;2.45;;
30553;SDS011;17335;50.720;7.452;2022-10-16T02:06:06;3.40;;;2.10;;
30553;SDS011;17335;50.720;7.452;2022-10-16T02:08:33;3.90;;;2.50;;
30553;SDS011;17335;50.720;7.452;2022-10-16T02:11:01;4.25;;;2.08;;
30553;SDS011;17335;50.720;7.452;2022-10-16T02:16:04;5.63;;;2.63;;
30553;SDS011;17335;50.720;7.452;2022-10-16T02:18:41;5.32;;;2.83;;
30553;SDS011;17335;50.720;7.452;2022-10-16T02:29:34;14.88;;;3.17;;
30553;SDS011;17335;50.720;7.452;2022-10-16T02:32:07;4.22;;;2.60;;
30553;SDS011;17335;50.720;7.452;2022-10-16T02:34:36;5.93;;;2.92;;
30553;SDS011;17335;50.720;7.452;2022-10-16T02:37:05;5.75;;;2.60;;
30553;SDS011;17335;50.720;7.452;2022-10-16T02:39:32;4.10;;;2.47;;
30553;SDS011;17335;50.720;7.452;2022-10-16T02:42:00;7.30;;;2.35;;
30553;SDS011;17335;50.720;7.452;2022-10-16T02:44:27;4.80;;;2.50;;
30553;SDS011;17335;50.720;7.452;2022-10-16T02:46:57;3.83;;;2.30;;
30553;SDS011;17335;50.720;7.452;2022-10-16T02:49:23;4.45;;;2.55;;
30553;SDS011;17335;50.720;7.452;2022-10-16T02:51:50;3.63;;;2.33;;
30553;SDS011;17335;50.720;7.452;2022-10-16T02:54:16;6.20;;;2.38;;
30553;SDS011;17335;50.720;7.452;2022-10-16T02:56:42;4.00;;;2.17;;
30553;SDS011;17335;50.720;7.452;2022-10-16T02:59:09;4.30;;;2.75;;
30553;SDS011;17335;50.720;7.452;2022-10-16T03:01:36;4.20;;;2.30;;
30553;SDS011;17335;50.720;7.452;2022-10-16T03:04:02;5.20;;;2.22;;
30553;SDS011;17335;50.720;7.452;2022-10-16T03:06:29;3.92;;;2.40;;
30553;SDS011;17335;50.720;7.452;2022-10-16T03:08:55;3.25;;;1.88;;
30553;SDS011;17335;50.720;7.452;2022-10-16T03:11:22;3.85;;;2.25;;
30553;SDS011;17335;50.720;7.452;2022-10-16T03:13:48;3.90;;;1.88;;
30553;SDS011;17335;50.720;7.452;2022-10-16T03:16:15;3.30;;;1.98;;
30553;SDS011;17335;50.720;7.452;2022-10-16T03:18:42;3.13;;;1.88;;
30553;SDS011;17335;50.720;7.452;2022-10-16T03:21:08;2.63;;;1.83;;
30553;SDS011;17335;50.720;7.452;2022-10-16T03:23:34;5.32;;;1.92;;
30553;SDS011;17335;50.720;7.452;2022-10-16T03:26:01;3.15;;;1.70;;
30553;SDS011;17335;50.720;7.452;2022-10-16T03:28:28;2.67;;;1.75;;
30553;SDS011;17335;50.720;7.452;2022-10-16T03:30:54;5.20;;;1.88;;
30553;SDS011;17335;50.720;7.452;2022-10-16T03:33:21;3.85;;;2.10;;
30553;SDS011;17335;50.720;7.452;2022-10-16T03:35:51;5.65;;;2.05;;
30553;SDS011;17335;50.720;7.452;2022-10-16T03:38:19;4.03;;;2.28;;
30553;SDS011;17335;50.720;7.452;2022-10-16T03:40:46;4.28;;;2.17;;
30553;SDS011;17335;50.720;7.452;2022-10-16T03:43:13;6.10;;;1.92;;
30553;SDS011;17335;50.720;7.452;2022-10-16T03:45:39;4.65;;;1.90;;
30553;SDS011;17335;50.720;7.452;2022-10-16T03:48:06;5.15;;;2.30;;
30553;SDS011;17335;50.720;7.452;2022-10-16T03:50:32;4.05;;;2.03;;
30553;SDS011;17335;50.720;7.452;2022-10-16T03:52:59;2.53;;;1.80;;
30553;SDS011;17335;50.720;7.452;2022-10-16T03:55:26;3.97;;;1.88;;
30553;SDS011;17335;50.720;7.452;2022-10-16T03:57:52;3.35;;;1.80;;
30553;SDS011;17335;50.720;7.452;2022-10-16T04:00:18;3.22;;;2.00;;
30553;SDS011;17335;50.720;7.452;2022-10-16T04:02:45;3.80;;;2.10;;
30553;SDS011;17335;50.720;7.452;2022-10-16T04:05:11;6.07;;;1.80;;
30553;SDS011;17335;50.720;7.452;2022-10-16T04:07:38;4.53;;;2.15;;
30553;SDS011;17335;50.720;7.452;2022-10-16T04:10:05;3.80;;;2.20;;
30553;SDS011;17335;50.720;7.452;2022-10-16T04:12:31;3.28;;;1.75;;
30553;SDS011;17335;50.720;7.452;2022-10-16T04:14:58;3.55;;;1.98;;
30553;SDS011;17335;50.720;7.452;2022-10-16T04:17:24;3.65;;;2.17;;
30553;SDS011;17335;50.720;7.452;2022-10-16T04:19:52;4.82;;;2.28;;
30553;SDS011;17335;50.720;7.452;2022-10-16T04:22:18;6.97;;;2.30;;
30553;SDS011;17335;50.720;7.452;2022-10-16T04:24:45;3.58;;;2.15;;
30553;SDS011;17335;50.720;7.452;2022-10-16T04:27:11;3.58;;;1.83;;
30553;SDS011;17335;50.720;7.452;2022-10-16T04:29:38;7.07;;;2.30;;
30553;SDS011;17335;50.720;7.452;2022-10-16T04:32:04;10.02;;;2.25;;
30553;SDS011;17335;50.720;7.452;2022-10-16T04:34:31;3.60;;;2.30;;
30553;SDS011;17335;50.720;7.452;2022-10-16T04:36:57;3.67;;;2.10;;
30553;SDS011;17335;50.720;7.452;2022-10-16T04:39:24;3.33;;;2.05;;
30553;SDS011;17335;50.720;7.452;2022-10-16T04:41:50;3.30;;;2.10;;
30553;SDS011;17335;50.720;7.452;2022-10-16T04:44:17;4.53;;;2.30;;
30553;SDS011;17335;50.720;7.452;2022-10-16T04:46:44;3.25;;;2.22;;
30553;SDS011;17335;50.720;7.452;2022-10-16T04:49:10;5.45;;;2.20;;
30553;SDS011;17335;50.720;7.452;2022-10-16T04:51:37;6.07;;;2.17;;
30553;SDS011;17335;50.720;7.452;2022-10-16T04:54:03;3.55;;;2.20;;
30553;SDS011;17335;50.720;7.452;2022-10-16T04:56:30;5.82;;;2.50;;
30553;SDS011;17335;50.720;7.452;2022-10-16T04:58:57;9.00;;;2.67;;
30553;SDS011;17335;50.720;7.452;2022-10-16T05:01:23;5.72;;;2.72;;
30553;SDS011;17335;50.720;7.452;2022-10-16T05:03:50;7.32;;;2.67;;
30553;SDS011;17335;50.720;7.452;2022-10-16T05:06:16;4.68;;;2.72;;
30553;SDS011;17335;50.720;7.452;2022-10-16T05:08:43;6.38;;;2.47;;
30553;SDS011;17335;50.720;7.452;2022-10-16T05:11:09;4.60;;;2.17;;
30553;SDS011;17335;50.720;7.452;2022-10-16T05:13:36;3.50;;;2.20;;
30553;SDS011;17335;50.720;7.452;2022-10-16T05:16:02;4.80;;;2.53;;
30553;SDS011;17335;50.720;7.452;2022-10-16T05:18:29;4.00;;;2.55;;
30553;SDS011;17335;50.720;7.452;2022-10-16T05:20:55;4.05;;;2.67;;
30553;SDS011;17335;50.720;7.452;2022-10-16T05:23:22;6.53;;;2.50;;
30553;SDS011;17335;50.720;7.452;2022-10-16T05:25:52;4.47;;;2.55;;
30553;SDS011;17335;50.720;7.452;2022-10-16T05:28:20;3.33;;;2.45;;
30553;SDS011;17335;50.720;7.452;2022-10-16T05:30:47;4.60;;;2.80;;
30553;SDS011;17335;50.720;7.452;2022-10-16T05:33:13;4.35;;;2.72;;
30553;SDS011;17335;50.720;7.452;2022-10-16T05:35:40;4.80;;;2.80;;
30553;SDS011;17335;50.720;7.452;2022-10-16T05:38:06;5.18;;;3.10;;
30553;SDS011;17335;50.720;7.452;2022-10-16T05:40:33;5.03;;;2.83;;
30553;SDS011;17335;50.720;7.452;2022-10-16T05:42:59;5.25;;;3.50;;
30553;SDS011;17335;50.720;7.452;2022-10-16T05:45:26;5.97;;;2.90;;
30553;SDS011;17335;50.720;7.452;2022-10-16T05:47:52;4.57;;;2.85;;
30553;SDS011;17335;50.720;7.452;2022-10-16T05:50:19;3.78;;;2.53;;
30553;SDS011;17335;50.720;7.452;2022-10-16T05:52:45;4.45;;;2.53;;
30553;SDS011;17335;50.720;7.452;2022-10-16T05:55:12;3.97;;;2.53;;
30553;SDS011;17335;50.720;7.452;2022-10-16T05:57:40;6.05;;;2.47;;
30553;SDS011;17335;50.720;7.452;2022-10-16T06:00:07;3.70;;;2.30;;
30553;SDS011;17335;50.720;7.452;2022-10-16T06:02:34;3.90;;;2.33;;
30553;SDS011;17335;50.720;7.452;2022-10-16T06:05:01;5.88;;;2.20;;
30553;SDS011;17335;50.720;7.452;2022-10-16T06:07:27;3.42;;;2.22;;
30553;SDS011;17335;50.720;7.452;2022-10-16T06:09:54;4.88;;;2.15;;
30553;SDS011;17335;50.720;7.452;2022-10-16T06:12:21;5.15;;;2.20;;
30553;SDS011;17335;50.720;7.452;2022-10-16T06:14:47;3.33;;;1.98;;
30553;SDS011;17335;50.720;7.452;2022-10-16T06:17:14;6.22;;;1.90;;
30553;SDS011;17335;50.720;7.452;2022-10-16T06:19:41;6.15;;;2.05;;
30553;SDS011;17335;50.720;7.452;2022-10-16T06:22:08;4.20;;;2.05;;
30553;SDS011;17335;50.720;7.452;2022-10-16T06:24:34;2.70;;;1.60;;
30553;SDS011;17335;50.720;7.452;2022-10-16T06:27:03;4.07;;;1.63;;
30553;SDS011;17335;50.720;7.452;2022-10-16T06:29:30;3.10;;;1.90;;
30553;SDS011;17335;50.720;7.452;2022-10-16T06:31:58;3.55;;;1.83;;
30553;SDS011;17335;50.720;7.452;2022-10-16T06:34:24;4.03;;;1.75;;
30553;SDS011;17335;50.720;7.452;2022-10-16T06:36:51;3.20;;;2.10;;
30553;SDS011;17335;50.720;7.452;2022-10-16T06:39:17;3.83;;;1.77;;
30553;SDS011;17335;50.720;7.452;2022-10-16T06:41:45;2.97;;;1.58;;
30553;SDS011;17335;50.720;7.452;2022-10-16T06:44:11;15.45;;;2.10;;
30553;SDS011;17335;50.720;7.452;2022-10-16T06:46:38;3.58;;;1.83;;
30553;SDS011;17335;50.720;7.452;2022-10-16T06:49:05;3.47;;;1.38;;
30553;SDS011;17335;50.720;7.452;2022-10-16T06:51:31;2.75;;;1.40;;
30553;SDS011;17335;50.720;7.452;2022-10-16T06:54:05;3.38;;;1.42;;
30553;SDS011;17335;50.720;7.452;2022-10-16T06:56:32;4.85;;;1.50;;
30553;SDS011;17335;50.720;7.452;2022-10-16T06:59:00;2.30;;;1.50;;
30553;SDS011;17335;50.720;7.452;2022-10-16T07:01:28;3.35;;;1.60;;
30553;SDS011;17335;50.720;7.452;2022-10-16T07:03:55;2.80;;;1.38;;
30553;SDS011;17335;50.720;7.452;2022-10-16T07:06:22;3.40;;;1.52;;
30553;SDS011;17335;50.720;7.452;2022-10-16T07:08:50;2.45;;;1.38;;
30553;SDS011;17335;50.720;7.452;2022-10-16T07:11:18;2.22;;;1.48;;
30553;SDS011;17335;50.720;7.452;2022-10-16T07:13:46;3.85;;;1.40;;
30553;SDS011;17335;50.720;7.452;2022-10-16T07:16:24;3.55;;;1.75;;
30553;SDS011;17335;50.720;7.452;2022-10-16T07:18:55;7.32;;;1.58;;
30553;SDS011;17335;50.720;7.452;2022-10-16T07:21:27;3.20;;;1.52;;
30553;SDS011;17335;50.720;7.452;2022-10-16T07:23:58;2.33;;;1.27;;
30553;SDS011;17335;50.720;7.452;2022-10-16T07:26:25;2.83;;;1.48;;
30553;SDS011;17335;50.720;7.452;2022-10-16T07:28:53;2.35;;;1.30;;
30553;SDS011;17335;50.720;7.452;2022-10-16T07:31:20;2.30;;;1.40;;
30553;SDS011;17335;50.720;7.452;2022-10-16T07:33:47;4.13;;;1.58;;
30553;SDS011;17335;50.720;7.452;2022-10-16T07:36:15;2.40;;;1.33;;
30553;SDS011;17335;50.720;7.452;2022-10-16T07:38:42;1.92;;;1.17;;
30553;SDS011;17335;50.720;7.452;2022-10-16T07:41:11;1.80;;;1.00;;
30553;SDS011;17335;50.720;7.452;2022-10-16T07:43:39;1.63;;;1.20;;
30553;SDS011;17335;50.720;7.452;2022-10-16T07:46:06;2.20;;;1.35;;
30553;SDS011;17335;50.720;7.452;2022-10-16T07:48:33;1.58;;;1.10;;
30553;SDS011;17335;50.720;7.452;2022-10-16T07:51:01;1.85;;;1.20;;
30553;SDS011;17335;50.720;7.452;2022-10-16T07:53:30;2.22;;;1.30;;
30553;SDS011;17335;50.720;7.452;2022-10-16T07:56:03;1.98;;;1.10;;
30553;SDS011;17335;50.720;7.452;2022-10-16T07:58:31;1.65;;;1.10;;
30553;SDS011;17335;50.720;7.452;2022-10-16T08:00:58;3.45;;;1.27;;
30553;SDS011;17335;50.720;7.452;2022-10-16T08:03:28;2.53;;;1.15;;
30553;SDS011;17335;50.720;7.452;2022-10-16T08:05:56;2.17;;;1.13;;
30553;SDS011;17335;50.720;7.452;2022-10-16T08:08:24;2.28;;;1.33;;
30553;SDS011;17335;50.720;7.452;2022-10-16T08:10:51;1.65;;;1.10;;
30553;SDS011;17335;50.720;7.452;2022-10-16T08:13:17;1.73;;;1.10;;
30553;SDS011;17335;50.720;7.452;2022-10-16T08:15:44;1.80;;;1.17;;
30553;SDS011;17335;50.720;7.452;2022-10-16T08:18:12;3.67;;;1.20;;
30553;SDS011;17335;50.720;7.452;2022-10-16T08:20:40;1.73;;;1.13;;
30553;SDS011;17335;50.720;7.452;2022-10-16T08:23:07;2.28;;;1.17;;
30553;SDS011;17335;50.720;7.452;2022-10-16T08:25:35;1.88;;;1.20;;
30553;SDS011;17335;50.720;7.452;2022-10-16T08:28:03;1.98;;;1.17;;
30553;SDS011;17335;50.720;7.452;2022-10-16T08:30:33;2.30;;;1.10;;
30553;SDS011;17335;50.720;7.452;2022-10-16T08:33:00;1.10;;;0.90;;
30553;SDS011;17335;50.720;7.452;2022-10-16T08:35:27;3.80;;;1.30;;
30553;SDS011;17335;50.720;7.452;2022-10-16T08:37:54;2.63;;;1.05;;
30553;SDS011;17335;50.720;7.452;2022-10-16T08:48:45;1.35;;;1.00;;
30553;SDS011;17335;50.720;7.452;2022-10-16T08:51:24;1.23;;;0.80;;
30553;SDS011;17335;50.720;7.452;2022-10-16T08:56:22;1.42;;;0.90;;
30553;SDS011;17335;50.720;7.452;2022-10-16T08:58:49;1.42;;;0.88;;
30553;SDS011;17335;50.720;7.452;2022-10-16T09:01:21;1.65;;;1.02;;
30553;SDS011;17335;50.720;7.452;2022-10-16T09:12:19;1.02;;;0.80;;
30553;SDS011;17335;50.720;7.452;2022-10-16T09:15:02;2.78;;;1.05;;
30553;SDS011;17335;50.720;7.452;2022-10-16T09:17:34;1.35;;;0.90;;
30553;SDS011;17335;50.720;7.452;2022-10-16T09:22:48;2.15;;;1.00;;
30553;SDS011;17335;50.720;7.452;2022-10-16T09:25:27;1.55;;;1.00;;
30553;SDS011;17335;50.720;7.452;2022-10-16T09:27:54;1.90;;;1.10;;
30553;SDS011;17335;50.720;7.452;2022-10-16T09:30:21;2.67;;;1.02;;
30553;SDS011;17335;50.720;7.452;2022-10-16T09:32:50;1.77;;;1.02;;
30553;SDS011;17335;50.720;7.452;2022-10-16T09:35:22;1.88;;;0.95;;
30553;SDS011;17335;50.720;7.452;2022-10-16T09:37:57;1.70;;;0.80;;
30553;SDS011;17335;50.720;7.452;2022-10-16T09:40:30;2.15;;;1.05;;
30553;SDS011;17335;50.720;7.452;2022-10-16T09:45:52;1.40;;;0.90;;
30553;SDS011;17335;50.720;7.452;2022-10-16T09:48:44;2.22;;;1.10;;
30553;SDS011;17335;50.720;7.452;2022-10-16T09:51:21;2.88;;;0.80;;
30553;SDS011;17335;50.720;7.452;2022-10-16T09:53:56;1.98;;;1.10;;
30553;SDS011;17335;50.720;7.452;2022-10-16T09:56:31;2.70;;;1.00;;
30553;SDS011;17335;50.720;7.452;2022-10-16T09:59:13;1.80;;;0.90;;
30553;SDS011;17335;50.720;7.452;2022-10-16T10:01:44;1.20;;;0.90;;
30553;SDS011;17335;50.720;7.452;2022-10-16T10:04:13;1.30;;;0.90;;
30553;SDS011;17335;50.720;7.452;2022-10-16T10:06:44;1.88;;;0.70;;
30553;SDS011;17335;50.720;7.452;2022-10-16T10:11:51;1.10;;;0.82;;
30553;SDS011;17335;50.720;7.452;2022-10-16T10:14:19;0.63;;;0.63;;
30553;SDS011;17335;50.720;7.452;2022-10-16T10:16:49;1.23;;;0.75;;
30553;SDS011;17335;50.720;7.452;2022-10-16T10:19:21;1.88;;;0.73;;
30553;SDS011;17335;50.720;7.452;2022-10-16T10:21:52;2.10;;;0.70;;
30553;SDS011;17335;50.720;7.452;2022-10-16T10:24:19;1.90;;;0.90;;
30553;SDS011;17335;50.720;7.452;2022-10-16T10:42:53;0.80;;;0.65;;
30553;SDS011;17335;50.720;7.452;2022-10-16T10:45:42;2.20;;;0.60;;
30553;SDS011;17335;50.720;7.452;2022-10-16T10:48:16;0.93;;;0.70;;
30553;SDS011;17335;50.720;7.452;2022-10-16T10:50:55;0.85;;;0.60;;
30553;SDS011;17335;50.720;7.452;2022-10-16T10:58:55;1.55;;;0.70;;
30553;SDS011;17335;50.720;7.452;2022-10-16T11:01:32;4.60;;;1.90;;
30553;SDS011;17335;50.720;7.452;2022-10-16T11:06:55;1.38;;;0.82;;
30553;SDS011;17335;50.720;7.452;2022-10-16T11:12:00;0.88;;;0.60;;
30553;SDS011;17335;50.720;7.452;2022-10-16T11:17:35;1.17;;;0.70;;
30553;SDS011;17335;50.720;7.452;2022-10-16T11:22:53;1.87;;;0.80;;
30553;SDS011;17335;50.720;7.452;2022-10-16T11:25:30;3.03;;;0.70;;
30553;SDS011;17335;50.720;7.452;2022-10-16T11:28:16;2.95;;;0.80;;
30553;SDS011;17335;50.720;7.452;2022-10-16T11:30:51;3.25;;;0.70;;
30553;SDS011;17335;50.720;7.452;2022-10-16T11:33:32;1.05;;;0.60;;
30553;SDS011;17335;50.720;7.452;2022-10-16T11:37:07;1.00;;;0.60;;
30553;SDS011;17335;50.720;7.452;2022-10-16T11:44:14;3.30;;;0.80;;
30553;SDS011;17335;50.720;7.452;2022-10-16T11:49:51;1.25;;;0.93;;
30553;SDS011;17335;50.720;7.452;2022-10-16T11:52:40;0.95;;;0.70;;
30553;SDS011;17335;50.720;7.452;2022-10-16T11:55:21;0.77;;;0.63;;
30553;SDS011;17335;50.720;7.452;2022-10-16T11:58:01;1.25;;;0.80;;
30553;SDS011;17335;50.720;7.452;2022-10-16T12:00:37;0.88;;;0.70;;
30553;SDS011;17335;50.720;7.452;2022-10-16T12:05:54;1.30;;;0.90;;
30553;SDS011;17335;50.720;7.452;2022-10-16T12:08:21;0.77;;;0.70;;
30553;SDS011;17335;50.720;7.452;2022-10-16T12:10:49;1.92;;;0.90;;
30553;SDS011;17335;50.720;7.452;2022-10-16T12:18:38;0.75;;;0.63;;
30553;SDS011;17335;50.720;7.452;2022-10-16T12:21:06;4.10;;;0.90;;
30553;SDS011;17335;50.720;7.452;2022-10-16T12:23:37;1.25;;;0.75;;
30553;SDS011;17335;50.720;7.452;2022-10-16T12:26:12;2.42;;;0.90;;
30553;SDS011;17335;50.720;7.452;2022-10-16T12:28:39;2.35;;;0.70;;
30553;SDS011;17335;50.720;7.452;2022-10-16T12:31:07;2.97;;;0.77;;
30553;SDS011;17335;50.720;7.452;2022-10-16T12:33:36;1.40;;;0.75;;
30553;SDS011;17335;50.720;7.452;2022-10-16T12:36:15;5.78;;;0.88;;
30553;SDS011;17335;50.720;7.452;2022-10-16T12:38:53;0.70;;;0.70;;
30553;SDS011;17335;50.720;7.452;2022-10-16T12:41:38;1.10;;;0.82;;
30553;SDS011;17335;50.720;7.452;2022-10-16T12:44:20;6.43;;;0.80;;
30553;SDS011;17335;50.720;7.452;2022-10-16T12:46:50;1.48;;;0.90;;
30553;SDS011;17335;50.720;7.452;2022-10-16T12:49:36;1.38;;;0.80;;
30553;SDS011;17335;50.720;7.452;2022-10-16T12:52:22;1.98;;;0.90;;
30553;SDS011;17335;50.720;7.452;2022-10-16T12:55:17;1.08;;;0.80;;
30553;SDS011;17335;50.720;7.452;2022-10-16T12:58:07;1.75;;;0.88;;
30553;SDS011;17335;50.720;7.452;2022-10-16T13:00:46;1.60;;;0.88;;
30553;SDS011;17335;50.720;7.452;2022-10-16T13:03:32;2.63;;;0.82;;
30553;SDS011;17335;50.720;7.452;2022-10-16T13:12:01;1.70;;;0.70;;
30553;SDS011;17335;50.720;7.452;2022-10-16T13:14:57;1.58;;;0.88;;
30553;SDS011;17335;50.720;7.452;2022-10-16T13:20:23;3.20;;;0.80;;
30553;SDS011;17335;50.720;7.452;2022-10-16T13:23:09;2.33;;;0.80;;
30553;SDS011;17335;50.720;7.452;2022-10-16T13:28:21;1.23;;;0.70;;
30553;SDS011;17335;50.720;7.452;2022-10-16T13:30:54;1.92;;;0.90;;
30553;SDS011;17335;50.720;7.452;2022-10-16T13:33:33;3.75;;;0.80;;
30553;SDS011;17335;50.720;7.452;2022-10-16T13:36:06;1.65;;;0.95;;
30553;SDS011;17335;50.720;7.452;2022-10-16T13:38:33;1.48;;;0.80;;
30553;SDS011;17335;50.720;7.452;2022-10-16T13:41:06;2.05;;;0.70;;
30553;SDS011;17335;50.720;7.452;2022-10-16T13:43:41;1.58;;;0.80;;
30553;SDS011;17335;50.720;7.452;2022-10-16T13:46:18;1.15;;;0.70;;
30553;SDS011;17335;50.720;7.452;2022-10-16T13:48:59;1.05;;;0.70;;
30553;SDS011;17335;50.720;7.452;2022-10-16T13:51:30;0.65;;;0.57;;
30553;SDS011;17335;50.720;7.452;2022-10-16T13:53:58;1.25;;;0.90;;
30553;SDS011;17335;50.720;7.452;2022-10-16T13:56:26;3.70;;;0.90;;
30553;SDS011;17335;50.720;7.452;2022-10-16T13:59:02;1.20;;;0.70;;
30553;SDS011;17335;50.720;7.452;2022-10-16T14:01:41;0.93;;;0.77;;
30553;SDS011;17335;50.720;7.452;2022-10-16T14:04:10;1.00;;;0.70;;
30553;SDS011;17335;50.720;7.452;2022-10-16T14:06:43;1.45;;;0.90;;
30553;SDS011;17335;50.720;7.452;2022-10-16T14:09:28;1.42;;;0.80;;
30553;SDS011;17335;50.720;7.452;2022-10-16T14:14:35;2.15;;;0.80;;
30553;SDS011;17335;50.720;7.452;2022-10-16T14:17:13;0.70;;;0.70;;
30553;SDS011;17335;50.720;7.452;2022-10-16T14:19:50;3.83;;;0.80;;
30553;SDS011;17335;50.720;7.452;2022-10-16T14:22:28;1.02;;;0.70;;
30553;SDS011;17335;50.720;7.452;2022-10-16T14:24:58;1.17;;;0.85;;
30553;SDS011;17335;50.720;7.452;2022-10-16T14:30:17;1.40;;;0.90;;
30553;SDS011;17335;50.720;7.452;2022-10-16T14:32:56;2.75;;;1.15;;
30553;SDS011;17335;50.720;7.452;2022-10-16T14:35:26;1.83;;;0.80;;
30553;SDS011;17335;50.720;7.452;2022-10-16T14:37:56;2.03;;;1.02;;
30553;SDS011;17335;50.720;7.452;2022-10-16T14:40:29;5.38;;;1.17;;
30553;SDS011;17335;50.720;7.452;2022-10-16T14:42:57;2.90;;;0.90;;
30553;SDS011;17335;50.720;7.452;2022-10-16T14:45:26;2.00;;;0.70;;
30553;SDS011;17335;50.720;7.452;2022-10-16T14:47:56;1.58;;;0.80;;
30553;SDS011;17335;50.720;7.452;2022-10-16T14:50:24;1.58;;;0.90;;
30553;SDS011;17335;50.720;7.452;2022-10-16T14:52:51;1.77;;;0.80;;
30553;SDS011;17335;50.720;7.452;2022-10-16T14:55:18;4.57;;;0.88;;
30553;SDS011;17335;50.720;7.452;2022-10-16T14:57:45;4.82;;;2.42;;
30553;SDS011;17335;50.720;7.452;2022-10-16T15:00:19;2.60;;;1.30;;
30553;SDS011;17335;50.720;7.452;2022-10-16T15:02:48;3.00;;;1.30;;
30553;SDS011;17335;50.720;7.452;2022-10-16T15:05:17;3.55;;;1.42;;
30553;SDS011;17335;50.720;7.452;2022-10-16T15:07:54;2.95;;;1.35;;
30553;SDS011;17335;50.720;7.452;2022-10-16T15:10:22;2.47;;;1.38;;
30553;SDS011;17335;50.720;7.452;2022-10-16T15:12:50;2.72;;;1.45;;
30553;SDS011;17335;50.720;7.452;2022-10-16T15:15:21;3.20;;;1.63;;
30553;SDS011;17335;50.720;7.452;2022-10-16T15:17:50;2.78;;;1.50;;
30553;SDS011;17335;50.720;7.452;2022-10-16T15:20:19;3.10;;;1.50;;
30553;SDS011;17335;50.720;7.452;2022-10-16T15:22:46;1.60;;;1.00;;
30553;SDS011;17335;50.720;7.452;2022-10-16T15:25:29;2.08;;;1.23;;
30553;SDS011;17335;50.720;7.452;2022-10-16T15:27:59;3.28;;;1.13;;
30553;SDS011;17335;50.720;7.452;2022-10-16T15:30:28;2.30;;;1.10;;
30553;SDS011;17335;50.720;7.452;2022-10-16T15:32:55;1.85;;;0.95;;
30553;SDS011;17335;50.720;7.452;2022-10-16T15:35:21;2.15;;;0.90;;
30553;SDS011;17335;50.720;7.452;2022-10-16T15:37:48;3.20;;;0.90;;
30553;SDS011;17335;50.720;7.452;2022-10-16T15:40:16;1.00;;;0.80;;
30553;SDS011;17335;50.720;7.452;2022-10-16T15:42:44;1.48;;;1.00;;
30553;SDS011;17335;50.720;7.452;2022-10-16T15:45:11;0.93;;;0.70;;
30553;SDS011;17335;50.720;7.452;2022-10-16T15:47:39;1.42;;;1.00;;
30553;SDS011;17335;50.720;7.452;2022-10-16T15:50:12;1.75;;;1.17;;
30553;SDS011;17335;50.720;7.452;2022-10-16T15:52:39;2.28;;;1.17;;
30553;SDS011;17335;50.720;7.452;2022-10-16T15:55:07;2.58;;;1.52;;
30553;SDS011;17335;50.720;7.452;2022-10-16T15:57:36;2.72;;;1.27;;
30553;SDS011;17335;50.720;7.452;2022-10-16T16:00:09;1.33;;;0.85;;
30553;SDS011;17335;50.720;7.452;2022-10-16T16:02:41;1.05;;;0.88;;
30553;SDS011;17335;50.720;7.452;2022-10-16T16:05:09;0.82;;;0.70;;
30553;SDS011;17335;50.720;7.452;2022-10-16T16:07:37;2.38;;;0.80;;
30553;SDS011;17335;50.720;7.452;2022-10-16T16:10:05;1.35;;;0.80;;
30553;SDS011;17335;50.720;7.452;2022-10-16T16:12:33;1.60;;;0.80;;
30553;SDS011;17335;50.720;7.452;2022-10-16T16:15:00;2.97;;;1.48;;
30553;SDS011;17335;50.720;7.452;2022-10-16T16:17:31;9.93;;;5.05;;
30553;SDS011;17335;50.720;7.452;2022-10-16T16:19:59;7.95;;;3.35;;
30553;SDS011;17335;50.720;7.452;2022-10-16T16:22:25;7.53;;;2.92;;
30553;SDS011;17335;50.720;7.452;2022-10-16T16:24:53;12.43;;;5.07;;
30553;SDS011;17335;50.720;7.452;2022-10-16T16:27:19;11.00;;;4.78;;
30553;SDS011;17335;50.720;7.452;2022-10-16T16:29:46;4.93;;;2.78;;
30553;SDS011;17335;50.720;7.452;2022-10-16T16:32:13;6.25;;;3.05;;
30553;SDS011;17335;50.720;7.452;2022-10-16T16:34:40;4.60;;;2.10;;
30553;SDS011;17335;50.720;7.452;2022-10-16T16:37:07;4.15;;;1.92;;
30553;SDS011;17335;50.720;7.452;2022-10-16T16:39:33;3.45;;;1.90;;
30553;SDS011;17335;50.720;7.452;2022-10-16T16:42:00;2.65;;;1.50;;
30553;SDS011;17335;50.720;7.452;2022-10-16T16:44:29;2.70;;;1.55;;
30553;SDS011;17335;50.720;7.452;2022-10-16T16:46:56;2.28;;;1.13;;
30553;SDS011;17335;50.720;7.452;2022-10-16T16:49:22;5.40;;;1.85;;
30553;SDS011;17335;50.720;7.452;2022-10-16T16:51:49;4.15;;;2.00;;
30553;SDS011;17335;50.720;7.452;2022-10-16T16:54:15;5.03;;;2.30;;
30553;SDS011;17335;50.720;7.452;2022-10-16T16:56:42;2.42;;;1.42;;
30553;SDS011;17335;50.720;7.452;2022-10-16T16:59:11;2.72;;;1.25;;
30553;SDS011;17335;50.720;7.452;2022-10-16T17:01:40;2.42;;;1.20;;